Time;durP1;ratioP1;P1;durP2;ratioP2;P2;SDS_P1;SDS_P2;PMS_P1;PMS_P2;Temp;Humidity;BMP_temperature;BMP_pressure;BME280_temperature;BME280_humidity;BME280_pressure;Samples;Min_cycle;Max_cycle;Signal;HPM_P1;HPM_P2
2022/01/28 00:01:05;;;;;;;;;;;5.30;99.90;;;;;;5003168;28;20052;-73
2022/01/28 00:03:33;;;;;;;;;;;5.30;99.90;;;;;;5003771;28;20050;-73
2022/01/28 00:06:01;;;;;;;;;;;5.30;99.90;;;;;;5004292;28;20068;-73
2022/01/28 00:08:30;;;;;;;;;;;5.30;99.90;;;;;;5003613;28;20161;-73
2022/01/28 00:10:57;;;;;;;;;;;5.30;99.90;;;;;;5002979;28;20091;-72
2022/01/28 00:13:29;;;;;;;;;;;5.30;99.90;;;;;;5003033;28;21179;-73
2022/01/28 00:16:21;;;;;;;;;;;5.30;99.90;;;;;;5004856;28;20197;-72
2022/01/28 00:19:07;;;;;;;;;;;5.20;99.90;;;;;;5002944;28;20060;-69
2022/01/28 00:38:25;;;;;;;;;;;5.00;99.90;;;;;;5001454;28;20054;-72
2022/01/28 00:40:53;;;;;;;;;;;4.90;99.90;;;;;;5001901;28;20060;-72
2022/01/28 00:43:20;;;;;;;;;;;4.90;99.90;;;;;;5003443;28;20060;-72
2022/01/28 00:45:48;;;;;;;;;;;4.80;99.90;;;;;;5003684;28;20153;-71
2022/01/28 00:48:15;;;;;;;;;;;4.80;99.90;;;;;;5002762;28;21120;-73
2022/01/28 00:50:42;;;;;;;;;;;4.70;99.90;;;;;;5003362;28;20095;-73
2022/01/28 00:53:10;;;;;;;;;;;4.70;99.90;;;;;;5002739;28;20075;-73
2022/01/28 00:55:37;;;;;;;;;;;4.70;99.90;;;;;;5003652;28;21140;-72
2022/01/28 00:58:05;;;;;;;;;;;4.70;99.90;;;;;;5003153;28;20060;-73
2022/01/28 01:00:32;;;;;;;;;;;4.60;99.90;;;;;;5002235;28;20052;-73
2022/01/28 01:03:00;;;;;;;;;;;4.60;99.90;;;;;;5002890;28;20133;-72
2022/01/28 01:05:30;;;;;;;;;;;4.50;99.90;;;;;;5003172;28;21172;-72
2022/01/28 01:07:57;;;;;;;;;;;4.50;99.90;;;;;;5002625;28;20051;-72
2022/01/28 01:10:26;;;;;;;;;;;4.50;99.90;;;;;;5001886;28;21105;-72
2022/01/28 01:12:53;;;;;;;;;;;4.50;99.90;;;;;;5003994;28;20060;-73
2022/01/28 01:15:26;;;;;;;;;;;4.50;99.90;;;;;;5002710;28;20169;-72
2022/01/28 01:17:59;;;;;;;;;;;4.40;99.90;;;;;;5002731;28;20088;-73
2022/01/28 01:20:50;;;;;;;;;;;4.40;99.90;;;;;;5002426;28;20060;-73
2022/01/28 01:23:23;;;;;;;;;;;4.30;99.90;;;;;;5003166;28;20077;-73
2022/01/28 01:25:54;;;;;;;;;;;4.30;99.90;;;;;;5002097;28;20058;-72
2022/01/28 01:28:27;;;;;;;;;;;4.30;99.90;;;;;;5002871;28;20051;-73
2022/01/28 01:30:57;;;;;;;;;;;4.20;99.90;;;;;;5001211;28;20140;-72
2022/01/28 01:33:25;;;;;;;;;;;4.20;99.90;;;;;;5002247;28;21178;-73
2022/01/28 01:35:52;;;;;;;;;;;4.10;99.90;;;;;;5001699;28;20228;-74
2022/01/28 01:38:24;;;;;;;;;;;4.10;99.90;;;;;;5000081;28;20080;-73
2022/01/28 01:40:53;;;;;;;;;;;4.10;99.90;;;;;;5001916;28;21282;-73
2022/01/28 01:43:34;;;;;;;;;;;4.00;99.90;;;;;;5001960;28;21172;-73
2022/01/28 01:46:14;;;;;;;;;;;4.00;99.90;;;;;;5002624;28;21062;-71
2022/01/28 01:54:10;;;;;;;;;;;3.90;99.90;;;;;;5002464;28;20068;-73
2022/01/28 01:56:38;;;;;;;;;;;3.90;99.90;;;;;;5002401;28;20444;-72
2022/01/28 01:59:07;;;;;;;;;;;3.90;99.90;;;;;;5001735;28;20116;-73
2022/01/28 02:01:36;;;;;;;;;;;3.90;99.90;;;;;;5002047;28;21079;-72
2022/01/28 02:04:03;;;;;;;;;;;3.90;99.90;;;;;;5002693;28;20068;-73
2022/01/28 02:06:31;;;;;;;;;;;3.80;99.90;;;;;;5002119;28;20062;-72
2022/01/28 02:08:59;;;;;;;;;;;3.80;99.90;;;;;;5001770;28;20149;-72
2022/01/28 02:11:26;;;;;;;;;;;3.80;99.90;;;;;;5002127;28;20080;-72
2022/01/28 02:13:53;;;;;;;;;;;3.80;99.90;;;;;;5002136;28;20157;-73
2022/01/28 02:16:20;;;;;;;;;;;3.80;99.90;;;;;;5003093;28;20088;-73
2022/01/28 02:18:49;;;;;;;;;;;3.80;99.90;;;;;;5001228;28;20060;-73
2022/01/28 02:21:18;;;;;;;;;;;3.90;99.90;;;;;;5002533;28;20074;-72
2022/01/28 02:23:50;;;;;;;;;;;4.00;99.90;;;;;;5002407;28;21123;-73
2022/01/28 02:26:18;;;;;;;;;;;4.10;99.90;;;;;;5001949;28;20275;-71
2022/01/28 02:28:48;;;;;;;;;;;4.10;99.90;;;;;;5001260;28;20079;-72
2022/01/28 02:31:19;;;;;;;;;;;4.00;99.90;;;;;;5002219;28;20206;-72
2022/01/28 02:33:47;;;;;;;;;;;4.10;99.90;;;;;;5002517;28;20226;-72
2022/01/28 02:36:14;;;;;;;;;;;4.10;99.90;;;;;;4999050;28;20060;-72
2022/01/28 02:38:43;;;;;;;;;;;4.10;99.90;;;;;;5001819;28;20074;-72
2022/01/28 02:41:10;;;;;;;;;;;4.20;99.90;;;;;;5004697;28;20059;-72
2022/01/28 02:43:42;;;;;;;;;;;4.10;99.90;;;;;;5006026;28;21209;-73
2022/01/28 02:46:12;;;;;;;;;;;4.10;99.90;;;;;;5005731;28;20168;-74
2022/01/28 02:48:49;;;;;;;;;;;4.00;99.90;;;;;;5005325;28;20051;-71
2022/01/28 02:51:17;;;;;;;;;;;4.00;99.90;;;;;;5005698;28;21132;-73
2022/01/28 02:53:50;;;;;;;;;;;4.00;99.90;;;;;;5005125;28;21239;-73
2022/01/28 02:56:21;;;;;;;;;;;3.90;99.90;;;;;;5005689;28;20057;-73
2022/01/28 02:58:48;;;;;;;;;;;3.80;99.90;;;;;;5004714;28;20177;-73
2022/01/28 03:01:16;;;;;;;;;;;3.80;99.90;;;;;;5005541;28;20060;-73
2022/01/28 03:03:44;;;;;;;;;;;3.80;99.90;;;;;;5005138;28;20083;-73
2022/01/28 03:06:11;;;;;;;;;;;3.80;99.90;;;;;;5005776;28;20140;-73
2022/01/28 03:08:41;;;;;;;;;;;3.90;99.90;;;;;;5004429;28;20052;-73
2022/01/28 03:16:50;;;;;;;;;;;3.90;99.90;;;;;;4996074;28;20047;-73
2022/01/28 03:19:20;;;;;;;;;;;3.90;99.90;;;;;;5004154;28;21198;-73
2022/01/28 03:21:54;;;;;;;;;;;3.90;99.90;;;;;;5005479;28;20066;-73
2022/01/28 03:24:21;;;;;;;;;;;3.90;99.90;;;;;;5005252;28;20067;-73
2022/01/28 03:26:53;;;;;;;;;;;3.80;99.90;;;;;;5004631;28;20067;-73
2022/01/28 03:29:21;;;;;;;;;;;3.90;99.90;;;;;;5004407;28;20318;-72
2022/01/28 03:31:48;;;;;;;;;;;4.00;99.90;;;;;;5004892;28;20058;-73
2022/01/28 03:34:15;;;;;;;;;;;4.00;99.90;;;;;;5004699;28;20161;-73
2022/01/28 03:36:42;;;;;;;;;;;4.00;99.90;;;;;;5005606;28;21135;-73
2022/01/28 03:39:10;;;;;;;;;;;4.00;99.90;;;;;;5004134;28;20068;-73
2022/01/28 03:41:38;;;;;;;;;;;4.00;99.90;;;;;;5004558;28;20068;-73
2022/01/28 03:44:07;;;;;;;;;;;4.00;99.90;;;;;;5004712;28;20181;-73
2022/01/28 03:46:34;;;;;;;;;;;4.00;99.90;;;;;;5004531;28;20064;-73
2022/01/28 03:49:01;;;;;;;;;;;4.00;99.90;;;;;;5004231;28;20051;-73
2022/01/28 03:51:29;;;;;;;;;;;4.10;99.90;;;;;;5004468;28;21066;-73
2022/01/28 03:53:57;;;;;;;;;;;4.10;99.90;;;;;;5000210;28;20192;-73
2022/01/28 03:56:24;;;;;;;;;;;4.10;99.90;;;;;;5001836;28;20065;-73
2022/01/28 03:58:51;;;;;;;;;;;4.10;99.90;;;;;;5003525;28;20162;-73
2022/01/28 04:01:25;;;;;;;;;;;4.00;99.90;;;;;;5005000;28;20059;-73
2022/01/28 04:04:25;;;;;;;;;;;4.00;99.90;;;;;;4995215;28;20068;-71
2022/01/28 04:12:19;;;;;;;;;;;3.90;99.90;;;;;;5000226;28;20064;-71
2022/01/28 04:15:00;;;;;;;;;;;3.80;99.90;;;;;;5003350;28;20066;-72
2022/01/28 04:17:29;;;;;;;;;;;3.70;99.90;;;;;;5002807;28;20060;-72
2022/01/28 04:19:56;;;;;;;;;;;3.70;99.90;;;;;;5004090;28;20170;-72
2022/01/28 04:22:23;;;;;;;;;;;3.70;99.90;;;;;;5004905;28;20056;-72
2022/01/28 04:24:50;;;;;;;;;;;3.60;99.90;;;;;;5002800;28;20077;-72
2022/01/28 04:27:17;;;;;;;;;;;3.50;99.90;;;;;;5003709;28;21146;-72
2022/01/28 04:29:45;;;;;;;;;;;3.50;99.90;;;;;;5004391;28;21112;-70
2022/01/28 04:32:12;;;;;;;;;;;3.40;99.90;;;;;;5004953;28;20295;-70
2022/01/28 04:34:41;;;;;;;;;;;3.40;99.90;;;;;;5003939;28;20065;-71
2022/01/28 04:37:17;;;;;;;;;;;3.40;99.90;;;;;;5004332;28;20060;-71
2022/01/28 04:39:46;;;;;;;;;;;3.30;99.90;;;;;;5004095;28;20153;-71
2022/01/28 04:42:24;;;;;;;;;;;3.30;99.90;;;;;;5004508;28;20051;-71
2022/01/28 04:45:00;;;;;;;;;;;3.30;99.90;;;;;;5004660;28;20051;-71
2022/01/28 04:47:34;;;;;;;;;;;3.30;99.90;;;;;;5004192;28;20080;-72
2022/01/28 04:50:11;;;;;;;;;;;3.30;99.90;;;;;;4998333;28;20061;-71
2022/01/28 04:53:01;;;;;;;;;;;3.30;99.90;;;;;;5020741;28;20060;-70
2022/01/28 04:55:46;;;;;;;;;;;3.40;99.90;;;;;;5004073;28;20068;-71
2022/01/28 04:58:26;;;;;;;;;;;3.30;99.90;;;;;;5004301;28;21031;-71
2022/01/28 05:01:06;;;;;;;;;;;3.30;99.90;;;;;;5002857;28;20215;-71
2022/01/28 05:03:47;;;;;;;;;;;3.40;99.90;;;;;;5004267;28;20060;-71
2022/01/28 05:28:21;;;;;;;;;;;3.90;99.90;;;;;;5003816;28;20048;-71
2022/01/28 05:30:48;;;;;;;;;;;3.90;99.90;;;;;;5002508;28;20058;-71
2022/01/28 05:33:16;;;;;;;;;;;4.00;99.90;;;;;;5003474;28;21082;-72
2022/01/28 05:35:43;;;;;;;;;;;3.90;99.90;;;;;;5004432;28;20076;-71
2022/01/28 05:38:12;;;;;;;;;;;4.00;99.90;;;;;;5003518;28;20051;-71
2022/01/28 05:40:39;;;;;;;;;;;4.00;99.90;;;;;;5003024;28;21097;-71
2022/01/28 05:43:06;;;;;;;;;;;4.00;99.90;;;;;;5002949;28;21240;-71
2022/01/28 05:45:33;;;;;;;;;;;4.00;99.90;;;;;;5003701;28;20186;-71
2022/01/28 05:48:00;;;;;;;;;;;3.90;99.90;;;;;;5003219;28;20067;-71
2022/01/28 05:50:27;;;;;;;;;;;3.80;99.90;;;;;;5003322;28;20082;-72
2022/01/28 05:52:55;;;;;;;;;;;3.70;99.90;;;;;;5003569;28;20060;-71
2022/01/28 05:55:24;;;;;;;;;;;3.70;99.90;;;;;;5003596;28;20060;-71
2022/01/28 05:57:51;;;;;;;;;;;3.60;99.90;;;;;;5003380;28;20052;-71
2022/01/28 06:00:19;;;;;;;;;;;3.60;99.90;;;;;;5003098;28;20086;-71
2022/01/28 06:02:46;;;;;;;;;;;3.60;99.90;;;;;;4997869;28;21276;-71
2022/01/28 06:05:13;;;;;;;;;;;3.60;99.90;;;;;;4988721;28;21174;-72
2022/01/28 06:07:42;;;;;;;;;;;3.60;99.90;;;;;;4994837;28;20051;-70
2022/01/28 06:10:10;;;;;;;;;;;3.60;99.90;;;;;;5000424;28;21157;-72
2022/01/28 06:12:42;;;;;;;;;;;3.60;99.90;;;;;;5004817;28;20060;-73
2022/01/28 06:15:10;;;;;;;;;;;3.60;99.90;;;;;;5006534;28;21069;-75
2022/01/28 06:17:37;;;;;;;;;;;3.50;99.90;;;;;;5005658;28;20067;-72
2022/01/28 06:20:06;;;;;;;;;;;3.50;99.90;;;;;;5007161;28;20887;-68
2022/01/28 06:22:33;;;;;;;;;;;3.40;99.90;;;;;;5005686;28;21187;-72
2022/01/28 06:25:00;;;;;;;;;;;3.40;99.90;;;;;;5005065;28;20060;-73
2022/01/28 06:27:27;;;;;;;;;;;3.30;99.90;;;;;;5005829;28;20070;-72
2022/01/28 06:29:56;;;;;;;;;;;3.30;99.90;;;;;;5005925;28;20091;-72
2022/01/28 06:32:23;;;;;;;;;;;3.30;99.90;;;;;;5006130;28;20060;-72
2022/01/28 06:34:50;;;;;;;;;;;3.20;99.90;;;;;;5005584;28;20051;-72
2022/01/28 06:37:18;;;;;;;;;;;3.20;99.90;;;;;;5005401;28;20059;-72
2022/01/28 06:39:45;;;;;;;;;;;3.10;99.90;;;;;;5004739;28;21047;-72
2022/01/28 06:42:13;;;;;;;;;;;3.10;99.90;;;;;;5006129;28;20153;-72
2022/01/28 06:44:40;;;;;;;;;;;3.00;99.90;;;;;;5006883;28;20050;-72
2022/01/28 06:47:11;;;;;;;;;;;2.90;99.90;;;;;;5006465;28;20081;-73
2022/01/28 06:49:38;;;;;;;;;;;2.90;99.90;;;;;;5004444;28;20122;-72
2022/01/28 06:52:06;;;;;;;;;;;2.80;99.90;;;;;;5005183;28;20060;-72
2022/01/28 06:54:33;;;;;;;;;;;2.80;99.90;;;;;;5005284;28;20076;-71
2022/01/28 06:57:00;;;;;;;;;;;2.70;99.90;;;;;;5005548;28;20149;-71
2022/01/28 06:59:27;;;;;;;;;;;2.70;99.90;;;;;;5002923;28;20170;-73
2022/01/28 07:01:55;;;;;;;;;;;2.70;99.90;;;;;;5005858;28;20069;-73
2022/01/28 07:04:23;;;;;;;;;;;2.60;99.90;;;;;;5006166;28;20075;-73
2022/01/28 07:06:51;;;;;;;;;;;2.60;99.90;;;;;;5005395;28;20295;-72
2022/01/28 07:09:18;;;;;;;;;;;2.50;99.90;;;;;;5043489;22;21163;-69
2022/01/28 07:11:45;;;;;;;;;;;2.60;99.90;;;;;;5006113;28;20067;-74
2022/01/28 07:14:12;;;;;;;;;;;2.60;99.90;;;;;;5005248;28;20060;-74
2022/01/28 07:16:39;;;;;;;;;;;2.60;99.90;;;;;;5005539;28;20149;-74
2022/01/28 07:19:08;;;;;;;;;;;2.50;99.90;;;;;;5019944;28;20149;-70
2022/01/28 07:21:36;;;;;;;;;;;2.50;99.90;;;;;;5025400;28;20172;-70
2022/01/28 07:24:04;;;;;;;;;;;2.40;99.90;;;;;;5024672;28;21131;-69
2022/01/28 07:26:31;;;;;;;;;;;2.40;99.90;;;;;;5025071;28;20151;-70
2022/01/28 07:28:58;;;;;;;;;;;2.40;99.90;;;;;;5023972;28;20066;-70
2022/01/28 07:31:26;;;;;;;;;;;2.30;99.90;;;;;;5025091;28;20144;-70
2022/01/28 07:33:53;;;;;;;;;;;2.40;99.90;;;;;;5025052;28;20067;-70
2022/01/28 07:36:20;;;;;;;;;;;2.40;99.90;;;;;;5024555;28;20084;-71
2022/01/28 07:38:49;;;;;;;;;;;2.40;99.90;;;;;;5022856;28;20095;-70
2022/01/28 07:41:16;;;;;;;;;;;2.40;99.90;;;;;;5015767;28;21031;-70
2022/01/28 07:43:43;;;;;;;;;;;2.40;99.90;;;;;;5005154;28;20287;-70
2022/01/28 07:46:10;;;;;;;;;;;2.40;99.90;;;;;;5005281;28;20069;-70
2022/01/28 07:48:38;;;;;;;;;;;2.50;99.90;;;;;;5004527;28;20099;-70
2022/01/28 07:51:05;;;;;;;;;;;2.50;99.90;;;;;;5003866;28;20140;-69
2022/01/28 07:53:32;;;;;;;;;;;2.50;99.90;;;;;;5008863;28;21097;-69
2022/01/28 07:56:00;;;;;;;;;;;2.50;99.90;;;;;;5003615;28;20091;-69
2022/01/28 07:58:28;;;;;;;;;;;2.60;99.90;;;;;;5013905;28;20115;-69
2022/01/28 08:00:55;;;;;;;;;;;2.70;99.90;;;;;;5005874;28;20068;-69
2022/01/28 08:03:22;;;;;;;;;;;2.70;99.90;;;;;;5004305;28;20068;-68
2022/01/28 08:05:49;;;;;;;;;;;2.80;99.90;;;;;;5004825;28;20082;-68
2022/01/28 08:08:19;;;;;;;;;;;2.80;99.90;;;;;;5010794;28;20068;-68
2022/01/28 08:10:46;;;;;;;;;;;2.90;99.90;;;;;;5011155;28;20220;-69
2022/01/28 08:13:15;;;;;;;;;;;3.00;99.90;;;;;;5013917;28;20083;-69
2022/01/28 08:15:42;;;;;;;;;;;3.00;99.90;;;;;;5007520;28;20191;-68
2022/01/28 08:18:10;;;;;;;;;;;3.10;99.90;;;;;;5013630;28;20108;-68
2022/01/28 08:20:38;;;;;;;;;;;3.10;99.90;;;;;;5009004;28;21173;-68
2022/01/28 08:23:06;;;;;;;;;;;3.20;99.90;;;;;;5012311;28;20115;-68
2022/01/28 08:25:34;;;;;;;;;;;3.30;99.90;;;;;;5012585;28;20108;-68
2022/01/28 08:28:02;;;;;;;;;;;3.30;99.90;;;;;;5008536;28;21211;-68
2022/01/28 08:30:32;;;;;;;;;;;3.30;99.90;;;;;;5009477;28;21256;-68
2022/01/28 08:33:00;;;;;;;;;;;3.40;99.90;;;;;;5011284;28;20077;-68
2022/01/28 08:35:32;;;;;;;;;;;3.40;99.90;;;;;;5011782;28;20207;-69
2022/01/28 08:37:59;;;;;;;;;;;3.50;99.90;;;;;;5010393;28;20075;-68
2022/01/28 08:40:28;;;;;;;;;;;3.50;99.90;;;;;;5007932;28;21110;-69
2022/01/28 08:42:55;;;;;;;;;;;3.60;99.90;;;;;;5011451;28;21167;-68
2022/01/28 08:45:23;;;;;;;;;;;3.70;99.90;;;;;;5008218;28;20098;-69
2022/01/28 08:47:52;;;;;;;;;;;3.70;99.90;;;;;;5009151;28;20168;-68
2022/01/28 08:50:19;;;;;;;;;;;3.80;99.90;;;;;;5010467;28;21051;-69
2022/01/28 08:52:47;;;;;;;;;;;3.80;99.90;;;;;;5011153;28;20222;-70
2022/01/28 08:55:15;;;;;;;;;;;3.90;99.90;;;;;;5003893;28;20060;-69
2022/01/28 08:57:44;;;;;;;;;;;4.00;99.90;;;;;;4994579;28;20083;-69
2022/01/28 09:00:13;;;;;;;;;;;4.10;99.90;;;;;;5002341;28;21210;-70
2022/01/28 09:02:41;;;;;;;;;;;4.20;99.90;;;;;;5002205;28;20076;-70
2022/01/28 09:05:10;;;;;;;;;;;4.30;99.90;;;;;;5003725;28;20092;-70
2022/01/28 09:07:37;;;;;;;;;;;4.30;99.90;;;;;;5003165;28;20197;-70
2022/01/28 09:10:10;;;;;;;;;;;4.40;99.90;;;;;;5002557;28;20082;-69
2022/01/28 09:12:46;;;;;;;;;;;4.50;99.90;;;;;;5008728;28;20059;-69
2022/01/28 09:15:14;;;;;;;;;;;4.60;99.90;;;;;;5008343;28;20065;-69
2022/01/28 09:17:41;;;;;;;;;;;4.70;99.90;;;;;;5000862;28;20060;-70
2022/01/28 09:20:10;;;;;;;;;;;4.70;99.90;;;;;;5002973;28;21123;-70
2022/01/28 09:22:37;;;;;;;;;;;4.80;99.90;;;;;;5003958;28;20182;-69
2022/01/28 09:25:05;;;;;;;;;;;4.80;99.90;;;;;;5002639;28;20083;-70
2022/01/28 09:27:32;;;;;;;;;;;4.80;99.90;;;;;;4997240;28;20211;-70
2022/01/28 09:29:59;;;;;;;;;;;4.90;99.90;;;;;;4997093;28;20068;-70
2022/01/28 09:32:26;;;;;;;;;;;5.00;99.90;;;;;;5003972;28;20117;-70
2022/01/28 09:34:53;;;;;;;;;;;5.00;99.90;;;;;;5003422;28;21067;-70
2022/01/28 09:37:22;;;;;;;;;;;5.10;99.90;;;;;;5003073;28;21128;-70
2022/01/28 09:39:49;;;;;;;;;;;5.10;99.90;;;;;;4993527;28;20067;-69
2022/01/28 09:42:20;;;;;;;;;;;5.20;99.90;;;;;;5002324;28;20088;-70
2022/01/28 09:44:48;;;;;;;;;;;5.30;99.90;;;;;;5003079;28;20193;-69
2022/01/28 09:47:18;;;;;;;;;;;5.40;99.90;;;;;;5006873;28;20059;-69
2022/01/28 09:49:45;;;;;;;;;;;5.40;99.90;;;;;;5006819;28;20060;-70
2022/01/28 09:52:13;;;;;;;;;;;5.50;99.90;;;;;;5010134;28;20101;-71
2022/01/28 09:54:46;;;;;;;;;;;5.60;99.90;;;;;;5007422;28;20077;-69
2022/01/28 09:57:13;;;;;;;;;;;5.70;99.90;;;;;;5007415;28;20189;-70
2022/01/28 09:59:41;;;;;;;;;;;5.80;99.90;;;;;;5005974;28;20069;-70
2022/01/28 10:02:08;;;;;;;;;;;5.90;99.90;;;;;;5011838;28;20099;-69
2022/01/28 10:04:36;;;;;;;;;;;5.90;99.90;;;;;;5007914;28;21099;-69
2022/01/28 10:07:10;;;;;;;;;;;6.00;99.90;;;;;;5009975;28;20067;-70
2022/01/28 10:09:37;;;;;;;;;;;6.10;99.90;;;;;;5005634;28;20051;-69
2022/01/28 10:12:19;;;;;;;;;;;6.30;99.90;;;;;;5005526;28;20091;-69
2022/01/28 10:15:02;;;;;;;;;;;6.30;99.90;;;;;;5007254;28;20130;-70
2022/01/28 10:17:43;;;;;;;;;;;6.30;99.90;;;;;;5006093;28;20274;-69
2022/01/28 10:20:11;;;;;;;;;;;6.40;99.90;;;;;;5005647;28;20067;-69
2022/01/28 10:22:49;;;;;;;;;;;6.40;99.90;;;;;;5005634;28;20086;-69
2022/01/28 10:25:22;;;;;;;;;;;6.40;99.90;;;;;;5006150;28;21198;-69
2022/01/28 10:27:58;;;;;;;;;;;6.60;99.90;;;;;;5006506;28;21237;-69
2022/01/28 10:30:25;;;;;;;;;;;6.60;99.90;;;;;;5004271;28;20057;-69
2022/01/28 10:33:07;;;;;;;;;;;6.80;99.90;;;;;;5005515;28;20076;-69
2022/01/28 10:35:34;;;;;;;;;;;7.00;99.90;;;;;;5005859;28;20102;-69
2022/01/28 10:38:02;;;;;;;;;;;7.10;99.90;;;;;;5006154;28;20075;-69
2022/01/28 10:40:29;;;;;;;;;;;7.10;99.90;;;;;;5004515;28;20051;-69
2022/01/28 10:42:58;;;;;;;;;;;7.30;99.90;;;;;;5005165;28;20118;-70
2022/01/28 10:45:29;;;;;;;;;;;7.30;99.90;;;;;;5012583;28;20286;-70
2022/01/28 10:47:57;;;;;;;;;;;7.60;99.90;;;;;;5010751;28;20287;-70
2022/01/28 10:50:25;;;;;;;;;;;7.80;99.90;;;;;;5001031;28;20162;-69
2022/01/28 10:53:00;;;;;;;;;;;8.00;99.90;;;;;;5023944;28;20068;-68
2022/01/28 10:55:29;;;;;;;;;;;8.20;99.90;;;;;;5006446;28;21161;-68
2022/01/28 10:57:59;;;;;;;;;;;8.70;99.90;;;;;;5006429;28;20170;-68
2022/01/28 11:00:27;;;;;;;;;;;10.40;99.90;;;;;;5006264;28;20069;-68
2022/01/28 11:02:55;;;;;;;;;;;10.60;99.90;;;;;;5007275;28;20068;-68
2022/01/28 11:05:22;;;;;;;;;;;12.70;99.90;;;;;;5006959;28;20186;-69
2022/01/28 11:07:49;;;;;;;;;;;11.30;99.90;;;;;;5003904;28;20286;-69
2022/01/28 11:10:17;;;;;;;;;;;9.60;99.90;;;;;;5003217;28;20076;-68
2022/01/28 11:12:44;;;;;;;;;;;8.50;99.90;;;;;;5002676;28;20167;-70
2022/01/28 11:15:13;;;;;;;;;;;9.50;99.90;;;;;;5000977;28;20085;-68
2022/01/28 11:17:40;;;;;;;;;;;9.20;99.90;;;;;;4999242;28;20056;-69
2022/01/28 11:20:08;;;;;;;;;;;8.80;99.90;;;;;;5001365;28;21020;-68
2022/01/28 11:22:52;;;;;;;;;;;8.60;99.90;;;;;;5013953;28;20179;-69
2022/01/28 11:25:35;;;;;;;;;;;8.30;99.90;;;;;;5002006;28;21127;-69
2022/01/28 11:28:07;;;;;;;;;;;8.20;99.90;;;;;;5006247;28;20265;-68
2022/01/28 11:30:36;;;;;;;;;;;11.10;99.90;;;;;;5004972;28;20187;-68
2022/01/28 11:33:06;;;;;;;;;;;10.00;99.90;;;;;;5005242;28;21247;-68
2022/01/28 11:35:35;;;;;;;;;;;8.90;99.90;;;;;;5005380;28;20050;-67
2022/01/28 11:38:04;;;;;;;;;;;10.30;99.90;;;;;;5004828;28;20178;-69
2022/01/28 11:40:45;;;;;;;;;;;12.30;99.90;;;;;;5005044;28;20076;-68
2022/01/28 11:43:22;;;;;;;;;;;11.90;99.90;;;;;;5000148;28;20170;-68
2022/01/28 11:46:04;;;;;;;;;;;11.00;99.90;;;;;;4998145;28;20203;-69
2022/01/28 11:48:46;;;;;;;;;;;11.70;99.90;;;;;;5004982;28;20092;-69
2022/01/28 11:51:15;;;;;;;;;;;10.40;99.90;;;;;;5000286;28;20051;-68
2022/01/28 11:53:53;;;;;;;;;;;9.10;99.90;;;;;;5020568;28;20090;-68
2022/01/28 11:56:21;;;;;;;;;;;8.40;99.90;;;;;;5004827;28;20091;-68
2022/01/28 11:58:52;;;;;;;;;;;8.30;99.90;;;;;;5004495;28;20092;-68
2022/01/28 12:01:24;;;;;;;;;;;8.80;99.90;;;;;;5005935;28;20067;-68
2022/01/28 12:03:51;;;;;;;;;;;8.50;99.90;;;;;;5004670;28;20067;-69
2022/01/28 12:06:19;;;;;;;;;;;8.20;99.90;;;;;;5005507;28;20069;-68
2022/01/28 12:08:46;;;;;;;;;;;8.90;99.90;;;;;;5004279;28;20084;-67
2022/01/28 12:11:14;;;;;;;;;;;9.00;99.90;;;;;;5011680;28;20084;-68
2022/01/28 12:13:49;;;;;;;;;;;8.70;99.90;;;;;;5004368;28;20208;-69
2022/01/28 12:16:29;;;;;;;;;;;9.80;99.90;;;;;;5009112;28;21107;-68
2022/01/28 12:18:58;;;;;;;;;;;11.50;99.90;;;;;;5008711;28;20069;-68
2022/01/28 12:21:26;;;;;;;;;;;10.50;99.90;;;;;;5003917;28;20060;-69
2022/01/28 12:23:55;;;;;;;;;;;9.30;99.90;;;;;;5003974;28;20077;-68
2022/01/28 12:26:24;;;;;;;;;;;8.70;99.90;;;;;;5004734;28;20079;-72
2022/01/28 12:28:52;;;;;;;;;;;8.40;99.90;;;;;;5002235;28;20187;-67
2022/01/28 12:31:30;;;;;;;;;;;8.30;99.90;;;;;;5003321;28;20153;-68
2022/01/28 12:33:59;;;;;;;;;;;8.50;99.90;;;;;;5003891;28;20057;-68
2022/01/28 12:36:28;;;;;;;;;;;8.70;99.90;;;;;;5003594;28;21149;-68
2022/01/28 12:39:07;;;;;;;;;;;8.80;99.90;;;;;;5003073;28;20050;-68
2022/01/28 12:41:41;;;;;;;;;;;10.10;99.90;;;;;;5004201;28;20060;-68
2022/01/28 12:44:09;;;;;;;;;;;9.80;99.90;;;;;;5004116;28;20059;-69
2022/01/28 12:46:39;;;;;;;;;;;9.40;99.90;;;;;;5003319;28;21068;-68
2022/01/28 12:49:09;;;;;;;;;;;9.00;99.90;;;;;;5003311;28;21718;-68
2022/01/28 12:51:38;;;;;;;;;;;9.30;99.90;;;;;;5003538;28;20145;-68
2022/01/28 12:54:05;;;;;;;;;;;9.50;99.90;;;;;;5003773;28;21212;-69
2022/01/28 12:56:33;;;;;;;;;;;9.60;99.90;;;;;;5003457;28;20067;-68
2022/01/28 12:59:01;;;;;;;;;;;10.60;99.90;;;;;;5002442;28;21252;-68
2022/01/28 13:01:28;;;;;;;;;;;14.60;99.90;;;;;;5003956;28;20178;-68
2022/01/28 13:04:10;;;;;;;;;;;17.40;99.90;;;;;;5002954;28;20059;-69
2022/01/28 13:07:00;;;;;;;;;;;18.50;99.90;;;;;;5003869;28;20052;-69
2022/01/28 13:09:27;;;;;;;;;;;19.70;99.90;;;;;;5002344;28;20067;-69
2022/01/28 13:11:58;;;;;;;;;;;16.80;99.90;;;;;;5018110;28;20060;-68
2022/01/28 13:14:29;;;;;;;;;;;14.70;99.90;;;;;;5023243;28;20088;-68
2022/01/28 13:16:56;;;;;;;;;;;15.30;99.90;;;;;;5023151;28;20984;-68
2022/01/28 13:19:27;;;;;;;;;;;13.00;99.90;;;;;;5021708;28;20145;-68
2022/01/28 13:21:55;;;;;;;;;;;13.50;99.90;;;;;;5022405;28;21108;-68
2022/01/28 13:24:23;;;;;;;;;;;16.70;99.90;;;;;;5023054;28;20065;-70
2022/01/28 13:26:54;;;;;;;;;;;18.90;99.90;;;;;;5014116;28;20236;-69
2022/01/28 13:29:29;;;;;;;;;;;18.80;99.90;;;;;;5005479;28;21216;-69
2022/01/28 13:31:59;;;;;;;;;;;14.90;99.90;;;;;;5002395;28;22165;-68
2022/01/28 13:34:28;;;;;;;;;;;14.40;99.90;;;;;;4998499;28;21052;-69
2022/01/28 13:36:57;;;;;;;;;;;15.40;99.90;;;;;;4998688;28;20091;-69
2022/01/28 13:39:25;;;;;;;;;;;17.60;99.90;;;;;;4997813;28;20149;-69
2022/01/28 13:42:07;;;;;;;;;;;17.50;99.90;;;;;;4998986;28;20077;-69
2022/01/28 13:44:35;;;;;;;;;;;18.40;99.90;;;;;;4998036;28;20166;-69
2022/01/28 13:47:03;;;;;;;;;;;19.50;99.90;;;;;;4998332;28;20068;-69
2022/01/28 13:49:35;;;;;;;;;;;20.00;99.90;;;;;;5001422;28;20221;-69
2022/01/28 13:52:15;;;;;;;;;;;20.30;99.90;;;;;;5004110;28;20060;-69
2022/01/28 13:54:43;;;;;;;;;;;19.20;99.90;;;;;;5003258;28;20075;-70
2022/01/28 13:57:10;;;;;;;;;;;19.20;99.90;;;;;;5003690;28;20533;-70
2022/01/28 13:59:39;;;;;;;;;;;19.30;99.90;;;;;;5001535;28;20154;-69
2022/01/28 14:02:11;;;;;;;;;;;21.10;99.90;;;;;;5004787;28;20178;-69
2022/01/28 14:04:41;;;;;;;;;;;20.90;99.90;;;;;;5004295;28;21141;-69
2022/01/28 14:07:09;;;;;;;;;;;20.70;99.90;;;;;;5003795;28;20071;-70
2022/01/28 14:09:42;;;;;;;;;;;20.10;99.90;;;;;;5002079;28;20066;-70
2022/01/28 14:12:12;;;;;;;;;;;21.10;99.90;;;;;;5003115;28;20082;-70
2022/01/28 14:14:45;;;;;;;;;;;21.10;99.90;;;;;;5003995;28;21008;-70
2022/01/28 14:17:12;;;;;;;;;;;20.10;99.90;;;;;;5003714;28;20067;-70
2022/01/28 14:19:41;;;;;;;;;;;20.00;99.90;;;;;;5002579;28;20149;-70
2022/01/28 14:22:08;;;;;;;;;;;19.20;99.90;;;;;;5003399;28;20099;-70
2022/01/28 14:24:36;;;;;;;;;;;19.40;99.90;;;;;;5003454;28;20215;-69
2022/01/28 14:27:13;;;;;;;;;;;19.00;99.90;;;;;;5004682;28;20077;-70
2022/01/28 14:29:53;;;;;;;;;;;19.10;99.90;;;;;;5001729;28;21066;-70
2022/01/28 14:32:22;;;;;;;;;;;19.00;99.90;;;;;;5003851;28;20060;-70
2022/01/28 14:34:53;;;;;;;;;;;19.00;99.90;;;;;;5006974;28;20076;-68
2022/01/28 14:37:21;;;;;;;;;;;19.10;99.90;;;;;;5007214;28;20169;-70
2022/01/28 14:39:48;;;;;;;;;;;17.50;99.90;;;;;;5005713;28;20116;-68
2022/01/28 14:42:15;;;;;;;;;;;15.80;99.90;;;;;;5007794;28;20060;-69
2022/01/28 14:44:43;;;;;;;;;;;13.50;99.90;;;;;;5005975;28;20163;-69
2022/01/28 14:47:11;;;;;;;;;;;12.40;99.90;;;;;;5007215;28;20068;-69
2022/01/28 14:49:39;;;;;;;;;;;12.20;99.90;;;;;;5005184;28;20068;-69
2022/01/28 14:52:11;;;;;;;;;;;13.30;99.90;;;;;;5007406;28;20107;-69
2022/01/28 14:54:39;;;;;;;;;;;14.20;99.90;;;;;;5006832;28;20060;-69
2022/01/28 14:57:10;;;;;;;;;;;14.90;99.90;;;;;;5006677;28;20060;-68
2022/01/28 14:59:38;;;;;;;;;;;14.70;99.90;;;;;;5004138;28;20108;-69
2022/01/28 15:02:05;;;;;;;;;;;13.60;99.90;;;;;;5005750;28;20070;-69
2022/01/28 15:04:33;;;;;;;;;;;13.40;99.90;;;;;;5005686;28;20067;-69
2022/01/28 15:07:00;;;;;;;;;;;12.80;99.90;;;;;;5005940;28;20075;-69
2022/01/28 15:09:28;;;;;;;;;;;12.10;99.90;;;;;;5004081;28;20172;-69
2022/01/28 15:11:56;;;;;;;;;;;11.80;99.90;;;;;;5020560;28;20068;-69
2022/01/28 15:14:24;;;;;;;;;;;11.90;99.90;;;;;;5026107;28;20066;-69
2022/01/28 15:16:52;;;;;;;;;;;11.80;99.90;;;;;;5026408;28;21162;-69
2022/01/28 15:19:19;;;;;;;;;;;11.50;99.90;;;;;;5024745;28;21136;-69
2022/01/28 15:21:50;;;;;;;;;;;11.40;99.90;;;;;;5025990;28;20068;-69
2022/01/28 15:24:17;;;;;;;;;;;11.60;99.90;;;;;;5025071;28;20074;-69
2022/01/28 15:26:46;;;;;;;;;;;11.30;99.90;;;;;;5019217;28;20133;-67
2022/01/28 15:29:33;;;;;;;;;;;11.00;99.90;;;;;;5005399;28;20068;-68
2022/01/28 15:35:01;;;;;;;;;;;9.60;99.90;;;;;;5006031;28;20062;-68
2022/01/28 15:37:28;;;;;;;;;;;8.70;99.90;;;;;;5005072;28;20075;-72
2022/01/28 15:39:55;;;;;;;;;;;8.00;99.90;;;;;;5004269;28;20060;-72